createdAt,value
2018-08-29T00:00:19.650Z,2.03
2018-08-29T00:02:47.871Z,2.17
2018-08-29T00:05:16.068Z,3.10
2018-08-29T00:07:49.598Z,2.40
2018-08-29T00:10:19.248Z,2.00
2018-08-29T00:12:48.523Z,2.10
2018-08-29T00:15:16.700Z,2.57
2018-08-29T00:17:44.898Z,2.17
2018-08-29T00:20:13.108Z,3.00
2018-08-29T00:22:41.322Z,1.60
2018-08-29T00:25:09.509Z,1.37
2018-08-29T00:27:37.730Z,3.83
2018-08-29T00:30:05.959Z,3.37
2018-08-29T00:32:34.135Z,1.90
2018-08-29T00:35:02.348Z,2.37
2018-08-29T00:37:30.547Z,1.80
2018-08-29T00:39:58.788Z,3.10
2018-08-29T00:42:27.052Z,2.67
2018-08-29T00:44:55.233Z,2.13
2018-08-29T00:47:23.435Z,2.20
2018-08-29T00:49:51.642Z,2.07
2018-08-29T00:52:19.903Z,2.10
2018-08-29T00:54:48.109Z,1.73
2018-08-29T00:57:16.301Z,2.10
2018-08-29T00:59:44.578Z,2.30
2018-08-29T01:02:13.773Z,2.07
2018-08-29T01:04:42.036Z,2.30
2018-08-29T01:07:10.601Z,2.53
2018-08-29T01:09:38.843Z,1.93
2018-08-29T01:12:07.059Z,2.07
2018-08-29T01:14:35.251Z,3.87
2018-08-29T01:17:03.459Z,1.80
2018-08-29T01:19:31.695Z,3.10
2018-08-29T01:21:59.955Z,1.83
2018-08-29T01:24:28.155Z,2.33
2018-08-29T01:26:56.391Z,1.93
2018-08-29T01:29:24.655Z,1.60
2018-08-29T01:31:52.853Z,1.87
2018-08-29T01:34:21.131Z,1.93
2018-08-29T01:36:49.279Z,2.47
2018-08-29T01:39:17.547Z,2.73
2018-08-29T01:41:45.789Z,3.23
2018-08-29T01:44:14.190Z,2.50
2018-08-29T01:46:42.348Z,2.80
2018-08-29T01:49:10.575Z,2.17
2018-08-29T01:51:38.777Z,2.20
2018-08-29T01:54:06.973Z,2.40
2018-08-29T01:56:35.195Z,2.03
2018-08-29T01:59:03.439Z,1.77
2018-08-29T02:01:31.647Z,2.13
2018-08-29T02:03:59.821Z,2.83
2018-08-29T02:06:28.028Z,1.43
2018-08-29T02:08:56.267Z,2.10
2018-08-29T02:11:24.441Z,1.70
2018-08-29T02:13:52.635Z,2.47
2018-08-29T02:16:20.819Z,2.10
2018-08-29T02:18:49.043Z,2.30
2018-08-29T02:21:17.217Z,2.43
2018-08-29T02:23:45.413Z,1.80
2018-08-29T02:26:13.595Z,3.00
2018-08-29T02:28:41.871Z,2.13
2018-08-29T02:31:10.055Z,1.67
2018-08-29T02:33:38.295Z,2.77
2018-08-29T02:36:06.585Z,3.00
2018-08-29T02:38:34.847Z,3.03
2018-08-29T02:41:03.582Z,2.10
2018-08-29T02:43:31.761Z,2.13
2018-08-29T02:45:59.947Z,3.10
2018-08-29T02:48:28.129Z,3.57
2018-08-29T02:50:56.789Z,3.00
2018-08-29T02:53:25.463Z,1.83
2018-08-29T02:55:53.735Z,2.50
2018-08-29T02:58:21.979Z,1.90
2018-08-29T03:00:50.244Z,1.90
2018-08-29T03:03:18.455Z,2.70
2018-08-29T03:05:46.642Z,2.53
2018-08-29T03:08:14.899Z,2.00
2018-08-29T03:10:43.080Z,3.27
2018-08-29T03:13:11.310Z,2.07
2018-08-29T03:15:39.506Z,2.60
2018-08-29T03:18:07.710Z,3.30
2018-08-29T03:24:06.888Z,2.87
2018-08-29T03:26:35.098Z,2.60
2018-08-29T03:29:03.374Z,2.10
2018-08-29T03:31:31.564Z,2.10
2018-08-29T03:34:00.046Z,2.93
2018-08-29T03:36:28.276Z,2.27
2018-08-29T03:38:56.465Z,2.43
2018-08-29T03:41:24.693Z,2.70
2018-08-29T03:43:52.917Z,2.80
2018-08-29T03:46:21.310Z,3.10
2018-08-29T03:48:49.600Z,3.17
2018-08-29T03:51:17.962Z,1.90
2018-08-29T03:53:46.142Z,2.67
2018-08-29T03:56:14.338Z,2.20
2018-08-29T03:58:42.584Z,2.27
2018-08-29T04:01:10.933Z,2.43
2018-08-29T04:03:39.168Z,2.63
2018-08-29T04:06:07.362Z,2.20
2018-08-29T04:08:35.572Z,2.30
2018-08-29T04:11:03.798Z,1.70
2018-08-29T04:13:31.994Z,1.80
2018-08-29T04:16:00.211Z,3.00
2018-08-29T04:18:28.468Z,2.10
2018-08-29T04:20:56.662Z,2.90
2018-08-29T04:23:24.854Z,1.53
2018-08-29T04:25:53.065Z,2.80
2018-08-29T04:28:21.324Z,2.47
2018-08-29T04:30:49.532Z,2.20
2018-08-29T04:33:17.718Z,2.53
2018-08-29T04:35:45.930Z,2.30
2018-08-29T04:38:14.172Z,2.40
2018-08-29T04:40:42.397Z,3.40
2018-08-29T04:43:10.596Z,1.73
2018-08-29T04:45:38.786Z,3.47
2018-08-29T04:48:07.070Z,3.87
2018-08-29T04:50:35.281Z,2.20
2018-08-29T04:53:03.490Z,2.97
2018-08-29T04:55:31.710Z,1.87
2018-08-29T04:58:00.019Z,2.90
2018-08-29T05:00:28.201Z,3.40
2018-08-29T05:02:56.378Z,2.87
2018-08-29T05:05:24.584Z,1.93
2018-08-29T05:07:52.827Z,2.50
2018-08-29T05:10:21.043Z,2.37
2018-08-29T05:12:49.257Z,2.90
2018-08-29T05:15:17.463Z,3.07
2018-08-29T05:17:45.658Z,3.27
2018-08-29T05:20:13.914Z,1.83
2018-08-29T05:22:42.126Z,3.20
2018-08-29T05:25:10.420Z,2.50
2018-08-29T05:27:38.614Z,3.00
2018-08-29T05:30:06.821Z,2.10
2018-08-29T05:32:35.023Z,2.70
2018-08-29T05:35:03.249Z,3.20
2018-08-29T05:37:31.443Z,3.20
2018-08-29T05:39:59.651Z,2.10
2018-08-29T05:42:27.857Z,2.10
2018-08-29T05:44:56.066Z,2.90
2018-08-29T05:47:24.320Z,3.23
2018-08-29T05:49:52.584Z,2.30
2018-08-29T05:52:20.764Z,2.17
2018-08-29T05:54:48.946Z,3.10
2018-08-29T05:57:17.171Z,3.73
2018-08-29T05:59:45.362Z,3.57
2018-08-29T06:02:13.580Z,3.27
2018-08-29T06:04:41.778Z,2.70
2018-08-29T06:07:09.982Z,2.87
2018-08-29T06:09:38.190Z,2.87
2018-08-29T06:12:06.674Z,3.00
2018-08-29T06:14:34.887Z,2.00
2018-08-29T06:17:03.104Z,3.80
2018-08-29T06:19:31.284Z,2.73
2018-08-29T06:21:59.508Z,2.40
2018-08-29T06:24:27.699Z,2.27
2018-08-29T06:26:56.016Z,3.10
2018-08-29T06:29:24.119Z,2.73
2018-08-29T06:31:52.287Z,2.57
2018-08-29T06:34:20.488Z,2.60
2018-08-29T06:36:48.707Z,3.13
2018-08-29T06:39:16.930Z,2.10
2018-08-29T06:41:45.081Z,3.07
2018-08-29T06:44:13.262Z,2.97
2018-08-29T06:46:41.453Z,2.90
2018-08-29T06:49:09.663Z,2.50
2018-08-29T06:51:38.601Z,4.07
2018-08-29T06:54:07.678Z,3.07
2018-08-29T06:56:35.888Z,3.53
2018-08-29T06:59:05.985Z,3.40
2018-08-29T07:01:34.178Z,3.03
2018-08-29T07:04:02.404Z,2.30
2018-08-29T07:06:30.624Z,2.33
2018-08-29T07:08:58.839Z,3.17
2018-08-29T07:11:27.055Z,2.70
2018-08-29T07:13:55.263Z,2.40
2018-08-29T07:16:23.465Z,3.47
2018-08-29T07:18:51.624Z,3.70
2018-08-29T07:21:19.798Z,2.73
2018-08-29T07:23:48.002Z,2.80
2018-08-29T07:26:16.415Z,3.10
2018-08-29T07:28:44.673Z,3.60
2018-08-29T07:31:12.861Z,2.00
2018-08-29T07:33:41.081Z,2.83
2018-08-29T07:36:09.429Z,2.83
2018-08-29T07:38:37.583Z,2.43
2018-08-29T07:41:05.802Z,2.57
2018-08-29T07:43:34.070Z,4.10
2018-08-29T07:46:02.281Z,3.50
2018-08-29T07:48:30.505Z,3.63
2018-08-29T07:50:58.703Z,4.30
2018-08-29T07:53:26.898Z,2.60
2018-08-29T07:55:55.103Z,3.90
2018-08-29T07:58:23.366Z,2.60
2018-08-29T08:00:51.644Z,3.40
2018-08-29T08:03:19.853Z,3.77
2018-08-29T08:05:48.042Z,3.00
2018-08-29T08:08:16.754Z,2.77
2018-08-29T08:10:44.741Z,3.93
2018-08-29T08:13:12.931Z,3.17
2018-08-29T08:15:41.147Z,2.40
2018-08-29T08:18:09.421Z,3.27
2018-08-29T08:20:37.598Z,3.10
2018-08-29T08:23:05.815Z,3.60
2018-08-29T08:25:34.025Z,4.10
2018-08-29T08:28:02.271Z,3.93
2018-08-29T08:30:30.469Z,2.80
2018-08-29T08:32:58.683Z,3.03
2018-08-29T08:35:26.899Z,3.20
2018-08-29T08:37:55.222Z,4.27
2018-08-29T08:40:23.487Z,3.03
2018-08-29T08:42:51.665Z,3.40
2018-08-29T08:45:19.866Z,4.00
2018-08-29T08:47:48.144Z,2.40
2018-08-29T08:50:16.293Z,3.13
2018-08-29T08:52:44.500Z,4.40
2018-08-29T08:55:12.697Z,3.60
2018-08-29T08:57:40.937Z,2.57
2018-08-29T09:00:09.175Z,2.73
2018-08-29T09:02:37.359Z,3.57
2018-08-29T09:05:05.567Z,3.40
2018-08-29T09:07:33.858Z,3.10
2018-08-29T09:10:01.986Z,3.43
2018-08-29T09:12:30.198Z,2.87
2018-08-29T09:14:58.401Z,3.33
2018-08-29T09:17:26.623Z,4.00
2018-08-29T09:19:54.807Z,3.00
2018-08-29T09:22:23.011Z,3.70
2018-08-29T09:24:51.319Z,2.87
2018-08-29T09:27:19.819Z,3.20
2018-08-29T09:29:48.067Z,3.20
2018-08-29T09:32:16.292Z,3.33
2018-08-29T09:34:44.685Z,4.63
2018-08-29T09:37:12.851Z,3.00
2018-08-29T09:39:41.079Z,3.90
2018-08-29T09:42:09.273Z,4.37
2018-08-29T09:44:37.453Z,3.07
2018-08-29T09:47:05.690Z,3.00
2018-08-29T09:49:33.925Z,3.20
2018-08-29T09:52:06.663Z,3.20
2018-08-29T09:54:34.865Z,3.63
2018-08-29T09:57:03.154Z,4.10
2018-08-29T09:59:31.243Z,3.27
2018-08-29T10:01:59.473Z,3.60
2018-08-29T10:04:28.914Z,4.00
2018-08-29T10:06:57.157Z,3.47
2018-08-29T10:09:25.367Z,4.17
2018-08-29T10:11:53.591Z,3.50
2018-08-29T10:14:21.763Z,3.10
2018-08-29T10:16:49.979Z,4.70
2018-08-29T10:19:18.191Z,3.83
2018-08-29T10:21:46.400Z,3.00
2018-08-29T10:24:14.606Z,4.23
2018-08-29T10:26:42.814Z,3.90
2018-08-29T10:29:11.001Z,3.23
2018-08-29T10:31:39.218Z,4.10
2018-08-29T10:34:07.384Z,2.53
2018-08-29T10:36:35.580Z,4.40
2018-08-29T10:39:04.149Z,2.90
2018-08-29T10:41:32.328Z,3.00
2018-08-29T10:44:00.551Z,4.00
2018-08-29T10:46:28.744Z,3.63
2018-08-29T10:48:57.006Z,3.13
2018-08-29T10:51:25.254Z,2.70
2018-08-29T10:53:53.424Z,3.57
2018-08-29T10:56:21.636Z,4.00
2018-08-29T10:58:49.822Z,4.07
2018-08-29T11:01:20.733Z,4.20
2018-08-29T11:03:48.903Z,3.53
2018-08-29T11:06:17.222Z,3.50
2018-08-29T11:08:45.453Z,4.03
2018-08-29T11:11:13.630Z,4.60
2018-08-29T11:13:41.826Z,3.40
2018-08-29T11:16:10.076Z,3.30
2018-08-29T11:18:38.247Z,3.47
2018-08-29T11:21:06.702Z,4.20
2018-08-29T11:23:34.900Z,4.23
2018-08-29T11:26:03.118Z,4.23
2018-08-29T11:28:31.482Z,4.83
2018-08-29T11:30:59.532Z,3.60
2018-08-29T11:33:27.737Z,3.47
2018-08-29T11:35:55.920Z,3.30
2018-08-29T11:38:24.150Z,3.77
2018-08-29T11:40:52.329Z,4.13
2018-08-29T11:43:20.533Z,4.33
2018-08-29T11:45:48.714Z,3.30
2018-08-29T11:48:17.131Z,3.87
2018-08-29T11:50:45.327Z,4.93
2018-08-29T11:53:13.536Z,4.17
2018-08-29T11:55:41.748Z,3.90
2018-08-29T11:58:09.986Z,3.37
2018-08-29T12:00:38.188Z,3.13
2018-08-29T12:03:06.812Z,3.00
2018-08-29T12:05:34.970Z,2.80
2018-08-29T12:08:03.297Z,3.10
2018-08-29T12:10:31.467Z,4.23
2018-08-29T12:12:59.643Z,3.07
2018-08-29T12:15:27.838Z,4.30
2018-08-29T12:17:56.289Z,3.50
2018-08-29T12:20:24.501Z,3.00
2018-08-29T12:22:52.715Z,2.83
2018-08-29T12:25:20.921Z,3.30
2018-08-29T12:27:49.128Z,4.10
2018-08-29T12:30:17.319Z,3.93
2018-08-29T12:32:45.533Z,4.10
2018-08-29T12:35:13.737Z,4.33
2018-08-29T12:37:41.927Z,3.47
2018-08-29T12:40:10.153Z,3.53
2018-08-29T12:42:38.372Z,4.60
2018-08-29T12:45:06.614Z,4.20
2018-08-29T12:47:34.804Z,4.20
2018-08-29T12:50:03.058Z,3.53
2018-08-29T12:52:31.203Z,3.47
2018-08-29T12:54:59.379Z,4.80
2018-08-29T12:57:27.582Z,5.07
2018-08-29T12:59:55.818Z,4.00
2018-08-29T13:02:24.003Z,4.77
2018-08-29T13:04:52.774Z,4.53
2018-08-29T13:07:21.028Z,4.00
2018-08-29T13:09:49.172Z,3.07
2018-08-29T13:12:17.367Z,3.43
2018-08-29T13:14:45.643Z,3.80
2018-08-29T13:17:13.783Z,4.60
2018-08-29T13:19:41.979Z,3.67
2018-08-29T13:22:10.171Z,4.10
2018-08-29T13:24:38.363Z,4.23
2018-08-29T13:27:06.571Z,3.07
2018-08-29T13:29:34.779Z,4.00
2018-08-29T13:32:03.007Z,4.00
2018-08-29T13:34:31.219Z,4.40
2018-08-29T13:36:59.443Z,5.37
2018-08-29T13:39:27.653Z,4.10
2018-08-29T13:41:55.849Z,3.50
2018-08-29T13:44:24.063Z,3.17
2018-08-29T13:46:52.359Z,5.17
2018-08-29T13:49:20.570Z,3.53
2018-08-29T13:51:48.837Z,4.90
2018-08-29T13:54:17.048Z,4.03
2018-08-29T13:56:45.231Z,3.83
2018-08-29T13:59:13.441Z,4.30
2018-08-29T14:01:41.610Z,4.07
2018-08-29T14:04:09.807Z,3.73
2018-08-29T14:06:38.017Z,4.53
2018-08-29T14:09:06.756Z,3.70
2018-08-29T14:11:34.957Z,4.10
2018-08-29T14:14:03.166Z,3.33
2018-08-29T14:16:31.369Z,3.50
2018-08-29T14:18:59.817Z,4.20
2018-08-29T14:21:28.063Z,3.40
2018-08-29T14:23:56.283Z,2.93
2018-08-29T14:26:24.548Z,3.40
2018-08-29T14:28:52.867Z,3.90
2018-08-29T14:31:21.064Z,3.60
2018-08-29T14:33:49.482Z,4.70
2018-08-29T14:36:17.573Z,5.33
2018-08-29T14:38:45.796Z,5.27
2018-08-29T14:41:13.993Z,5.40
2018-08-29T14:43:42.218Z,4.30
2018-08-29T14:46:10.524Z,4.23
2018-08-29T14:48:38.919Z,5.60
2018-08-29T14:51:07.148Z,4.10
2018-08-29T14:53:35.334Z,5.30
2018-08-29T14:56:03.698Z,4.20
2018-08-29T14:58:31.804Z,6.00
2018-08-29T15:01:12.385Z,4.77
2018-08-29T15:03:52.118Z,3.80
2018-08-29T15:06:20.311Z,6.00
2018-08-29T15:08:48.494Z,5.47
2018-08-29T15:11:16.697Z,3.50
2018-08-29T15:13:44.947Z,5.23
2018-08-29T15:16:13.162Z,4.10
2018-08-29T15:18:41.402Z,3.50
2018-08-29T15:21:09.606Z,4.00
2018-08-29T15:23:37.841Z,4.40
2018-08-29T15:26:06.359Z,4.93
2018-08-29T15:28:34.609Z,3.80
2018-08-29T15:31:02.740Z,3.87
2018-08-29T15:33:30.949Z,3.60
2018-08-29T15:35:59.169Z,3.80
2018-08-29T15:38:27.708Z,4.57
2018-08-29T15:40:55.930Z,4.60
2018-08-29T15:43:24.096Z,4.50
2018-08-29T15:45:52.327Z,5.47
2018-08-29T15:48:20.578Z,5.37
2018-08-29T15:50:48.819Z,5.87
2018-08-29T15:53:17.016Z,5.10
2018-08-29T15:55:45.193Z,5.30
2018-08-29T15:58:13.466Z,5.17
2018-08-29T16:00:41.774Z,5.90
2018-08-29T16:03:09.999Z,5.27
2018-08-29T16:05:38.221Z,5.37
2018-08-29T16:08:06.857Z,4.30
2018-08-29T16:10:35.074Z,5.90
2018-08-29T16:13:03.437Z,5.53
2018-08-29T16:15:31.752Z,5.17
2018-08-29T16:18:00.058Z,5.27
2018-08-29T16:20:28.281Z,5.73
2018-08-29T16:22:56.493Z,5.57
2018-08-29T16:25:24.740Z,3.97
2018-08-29T16:27:53.250Z,6.17
2018-08-29T16:30:21.453Z,5.70
2018-08-29T16:32:49.697Z,5.33
2018-08-29T16:35:18.198Z,5.23
2018-08-29T16:37:53.931Z,4.60
2018-08-29T16:40:22.354Z,4.30
2018-08-29T16:42:50.538Z,5.40
2018-08-29T16:45:18.770Z,6.03
2018-08-29T16:47:47.025Z,6.00
2018-08-29T16:50:15.222Z,5.53
2018-08-29T16:52:43.465Z,5.13
2018-08-29T16:55:11.653Z,5.10
2018-08-29T16:57:39.865Z,5.57
2018-08-29T17:00:08.673Z,5.70
2018-08-29T17:02:37.066Z,4.50
2018-08-29T17:05:05.288Z,5.63
2018-08-29T17:07:33.492Z,4.40
2018-08-29T17:10:01.705Z,5.47
2018-08-29T17:12:29.884Z,5.23
2018-08-29T17:14:58.190Z,4.80
2018-08-29T17:17:26.293Z,5.60
2018-08-29T17:19:54.678Z,4.73
2018-08-29T17:22:22.870Z,4.70
2018-08-29T17:24:51.048Z,4.90
2018-08-29T17:27:19.260Z,3.80
2018-08-29T17:29:47.490Z,4.97
2018-08-29T17:32:16.162Z,5.87
2018-08-29T17:34:44.370Z,5.93
2018-08-29T17:37:12.572Z,6.17
2018-08-29T17:39:40.784Z,4.90
2018-08-29T17:42:08.978Z,5.20
2018-08-29T17:44:38.227Z,4.63
2018-08-29T17:47:07.468Z,6.90
2018-08-29T17:49:50.254Z,4.87
2018-08-29T17:52:18.434Z,4.73
2018-08-29T17:54:46.642Z,5.20
2018-08-29T17:57:14.841Z,4.87
2018-08-29T17:59:43.064Z,5.73
2018-08-29T18:02:11.268Z,5.77
2018-08-29T18:04:39.458Z,6.30
2018-08-29T18:07:07.648Z,5.47
2018-08-29T18:09:35.851Z,6.70
2018-08-29T18:12:04.072Z,6.33
2018-08-29T18:14:32.275Z,5.63
2018-08-29T18:17:00.508Z,5.90
2018-08-29T18:19:28.708Z,6.70
2018-08-29T18:21:56.924Z,6.20
2018-08-29T18:24:25.123Z,4.63
2018-08-29T18:26:53.320Z,5.40
2018-08-29T18:29:21.516Z,5.50
2018-08-29T18:31:50.006Z,5.40
2018-08-29T18:34:18.258Z,5.70
2018-08-29T18:36:46.436Z,5.00
2018-08-29T18:39:14.673Z,6.40
2018-08-29T18:41:42.836Z,6.53
2018-08-29T18:44:11.226Z,5.27
2018-08-29T18:46:39.451Z,5.43
2018-08-29T18:49:07.696Z,6.47
2018-08-29T18:51:36.628Z,5.80
2018-08-29T18:54:04.880Z,5.73
2018-08-29T18:56:33.168Z,4.97
2018-08-29T18:59:01.471Z,6.00
2018-08-29T19:01:29.564Z,6.80
2018-08-29T19:03:57.888Z,5.47
2018-08-29T19:06:26.075Z,5.70
2018-08-29T19:08:54.406Z,5.40
2018-08-29T19:11:22.609Z,6.30
2018-08-29T19:13:50.804Z,6.33
2018-08-29T19:16:19.076Z,5.60
2018-08-29T19:18:47.347Z,6.10
2018-08-29T19:21:15.542Z,3.93
2018-08-29T19:23:43.771Z,4.90
2018-08-29T19:26:12.004Z,5.50
2018-08-29T19:28:40.190Z,6.07
2018-08-29T19:31:08.377Z,4.50
2018-08-29T19:33:36.594Z,5.13
2018-08-29T19:36:04.915Z,4.20
2018-08-29T19:38:33.194Z,4.17
2018-08-29T19:41:01.389Z,3.90
2018-08-29T19:43:29.594Z,3.43
2018-08-29T19:45:58.018Z,5.13
2018-08-29T19:48:26.273Z,2.73
2018-08-29T19:50:54.541Z,3.13
2018-08-29T19:53:22.737Z,4.37
2018-08-29T19:55:50.943Z,5.00
2018-08-29T19:58:19.155Z,4.40
2018-08-29T20:00:47.342Z,3.63
2018-08-29T20:03:15.530Z,4.23
2018-08-29T20:05:43.789Z,4.37
2018-08-29T20:08:11.989Z,2.80
2018-08-29T20:10:40.447Z,3.40
2018-08-29T20:13:08.629Z,2.70
2018-08-29T20:15:36.862Z,3.97
2018-08-29T20:18:05.118Z,2.93
2018-08-29T20:20:33.319Z,3.10
2018-08-29T20:23:01.513Z,2.47
2018-08-29T20:25:29.719Z,2.70
2018-08-29T20:27:58.011Z,3.47
2018-08-29T20:30:26.235Z,2.63
2018-08-29T20:32:54.640Z,2.70
2018-08-29T20:35:22.643Z,2.80
2018-08-29T20:37:50.923Z,3.43
2018-08-29T20:40:19.117Z,3.10
2018-08-29T20:42:47.317Z,3.50
2018-08-29T20:45:15.539Z,3.30
2018-08-29T20:47:43.739Z,3.90
2018-08-29T20:50:11.964Z,3.10
2018-08-29T20:52:40.158Z,3.80
2018-08-29T20:55:08.362Z,2.67
2018-08-29T20:57:36.607Z,2.80
2018-08-29T21:00:05.057Z,4.00
2018-08-29T21:02:33.261Z,2.40
2018-08-29T21:05:01.461Z,3.40
2018-08-29T21:07:29.667Z,3.80
2018-08-29T21:09:57.922Z,4.50
2018-08-29T21:12:26.195Z,3.53
2018-08-29T21:14:54.367Z,4.20
2018-08-29T21:17:22.604Z,4.97
2018-08-29T21:19:50.958Z,5.00
2018-08-29T21:22:19.143Z,4.30
2018-08-29T21:24:47.339Z,4.30
2018-08-29T21:27:26.775Z,4.43
2018-08-29T21:30:06.303Z,5.27
2018-08-29T21:36:55.087Z,4.87
2018-08-29T21:39:23.375Z,6.90
2018-08-29T21:41:52.153Z,4.13
2018-08-29T21:44:34.092Z,4.23
2018-08-29T21:47:13.714Z,4.20
2018-08-29T21:51:54.413Z,4.30
2018-08-29T21:54:32.088Z,4.50
2018-08-29T21:57:11.459Z,4.73
2018-08-29T21:59:50.097Z,2.73
2018-08-29T22:04:34.859Z,4.57
2018-08-29T22:07:03.121Z,4.87
2018-08-29T22:09:31.314Z,4.30
2018-08-29T22:11:59.521Z,5.13
2018-08-29T22:14:27.800Z,3.83
2018-08-29T22:16:55.913Z,3.30
2018-08-29T22:19:24.185Z,2.40
2018-08-29T22:21:52.407Z,3.53
2018-08-29T22:24:20.624Z,4.10
2018-08-29T22:26:48.832Z,2.07
2018-08-29T22:29:17.135Z,3.20
2018-08-29T22:31:45.311Z,1.90
2018-08-29T22:34:13.504Z,3.57
2018-08-29T22:36:41.699Z,3.63
2018-08-29T22:39:09.966Z,3.10
2018-08-29T22:41:38.143Z,3.27
2018-08-29T22:44:06.517Z,3.10
2018-08-29T22:46:34.729Z,1.60
2018-08-29T22:49:02.951Z,2.60
2018-08-29T22:51:31.163Z,2.20
2018-08-29T22:53:59.379Z,2.80
2018-08-29T22:56:27.571Z,2.90
2018-08-29T22:58:55.796Z,3.20
2018-08-29T23:01:23.981Z,3.13
2018-08-29T23:03:52.206Z,3.10
2018-08-29T23:06:20.400Z,2.80
2018-08-29T23:08:48.685Z,4.53
2018-08-29T23:11:16.887Z,2.90
2018-08-29T23:13:45.081Z,2.27
2018-08-29T23:16:13.306Z,2.50
2018-08-29T23:18:41.510Z,2.30
2018-08-29T23:21:09.700Z,2.30
2018-08-29T23:23:37.889Z,2.70
2018-08-29T23:26:06.069Z,2.40
2018-08-29T23:28:34.374Z,2.27
2018-08-29T23:31:02.565Z,2.87
2018-08-29T23:33:30.743Z,2.10
2018-08-29T23:35:58.924Z,2.17
2018-08-29T23:38:27.148Z,3.20
2018-08-29T23:40:55.380Z,2.63
2018-08-29T23:43:23.556Z,2.77
2018-08-29T23:45:51.738Z,3.47
2018-08-29T23:48:19.956Z,2.63
2018-08-29T23:50:48.165Z,2.40
2018-08-29T23:53:16.382Z,2.57
2018-08-29T23:55:44.548Z,3.00
2018-08-29T23:58:12.794Z,2.80
